createdAt,value
2023-03-28T00:00:19.862Z,100880.38
2023-03-28T00:02:47.473Z,100874.56
2023-03-28T00:05:14.879Z,100877.16
2023-03-28T00:07:42.439Z,100884.91
2023-03-28T00:10:09.968Z,100880.50
2023-03-28T00:12:37.240Z,100874.53
2023-03-28T00:15:04.793Z,100873.88
2023-03-28T00:17:32.148Z,100858.47
2023-03-28T00:20:02.648Z,100867.88
2023-03-28T00:22:30.571Z,100872.09
2023-03-28T00:25:00.820Z,100876.44
2023-03-28T00:27:28.035Z,100880.72
2023-03-28T00:29:55.271Z,100894.88
2023-03-28T00:32:22.462Z,100898.28
2023-03-28T00:34:49.704Z,100899.94
2023-03-28T00:37:17.317Z,100902.47
2023-03-28T00:39:49.995Z,100909.47
2023-03-28T00:42:18.543Z,100917.00
2023-03-28T00:44:50.786Z,100920.47
2023-03-28T00:47:26.100Z,100910.09
2023-03-28T00:49:56.772Z,100916.97
2023-03-28T00:52:25.684Z,100923.97
2023-03-28T00:54:53.732Z,100921.25
2023-03-28T00:57:20.913Z,100931.69
2023-03-28T00:59:48.182Z,100930.78
2023-03-28T01:02:15.520Z,100923.91
2023-03-28T01:04:59.276Z,100937.69
2023-03-28T01:07:31.324Z,100931.63
2023-03-28T01:09:58.620Z,100938.53
2023-03-28T01:12:26.030Z,100943.69
2023-03-28T01:14:53.240Z,100941.91
2023-03-28T01:17:21.105Z,100932.50
2023-03-28T01:19:58.739Z,100952.41
2023-03-28T01:22:57.295Z,100949.88
2023-03-28T01:25:47.418Z,100943.81
2023-03-28T01:28:43.859Z,100961.09
2023-03-28T01:31:21.423Z,100976.75
2023-03-28T01:33:57.819Z,100976.66
2023-03-28T01:36:46.503Z,100974.84
2023-03-28T01:39:23.212Z,100978.31
2023-03-28T01:41:56.200Z,100990.34
2023-03-28T01:44:49.401Z,100978.13
2023-03-28T01:47:33.048Z,100990.31
2023-03-28T01:50:19.654Z,100992.88
2023-03-28T01:52:46.785Z,100994.50
2023-03-28T01:55:41.875Z,100996.19
2023-03-28T01:58:32.868Z,101006.63
2023-03-28T02:01:05.472Z,101004.75
2023-03-28T02:03:35.874Z,101018.59
2023-03-28T02:06:06.117Z,101017.81
2023-03-28T02:08:36.601Z,101015.34
2023-03-28T02:11:53.575Z,101022.38
2023-03-28T02:14:46.827Z,101022.50
2023-03-28T02:17:16.258Z,101031.22
2023-03-28T02:19:48.956Z,101026.09
2023-03-28T02:22:27.029Z,101032.00
2023-03-28T02:24:54.251Z,101026.94
2023-03-28T02:27:22.758Z,101034.72
2023-03-28T02:29:50.005Z,101032.13
2023-03-28T02:32:17.857Z,101033.88
2023-03-28T02:34:46.721Z,101037.22
2023-03-28T02:37:14.025Z,101032.94
2023-03-28T02:40:02.245Z,101037.28
2023-03-28T02:42:43.315Z,101030.34
2023-03-28T02:45:34.476Z,101033.03
2023-03-28T02:48:10.582Z,101045.91
2023-03-28T02:51:04.093Z,101039.94
2023-03-28T02:53:56.756Z,101051.19
2023-03-28T02:56:42.802Z,101055.41
2023-03-28T02:59:18.769Z,101056.25
2023-03-28T03:01:47.361Z,101054.63
2023-03-28T03:04:17.343Z,101059.75
2023-03-28T03:06:48.456Z,101070.81
2023-03-28T03:09:16.607Z,101067.31
2023-03-28T03:11:43.748Z,101080.19
2023-03-28T03:14:12.120Z,101078.28
2023-03-28T03:16:39.421Z,101085.34
2023-03-28T03:19:07.545Z,101087.13
2023-03-28T03:21:36.441Z,101091.41
2023-03-28T03:24:04.228Z,101087.06
2023-03-28T03:26:31.407Z,101100.88
2023-03-28T03:29:00.702Z,101096.59
2023-03-28T03:31:28.015Z,101100.88
2023-03-28T03:33:55.274Z,101096.69
2023-03-28T03:36:22.433Z,101102.66
2023-03-28T03:38:49.564Z,101111.28
2023-03-28T03:41:16.690Z,101117.31
2023-03-28T03:43:45.297Z,101121.69
2023-03-28T03:46:14.357Z,101122.72
2023-03-28T03:48:49.268Z,101132.16
2023-03-28T03:51:17.295Z,101129.66
2023-03-28T03:53:44.957Z,101135.75
2023-03-28T03:56:12.572Z,101144.25
2023-03-28T03:58:39.745Z,101143.38
2023-03-28T04:01:09.820Z,101149.47
2023-03-28T04:03:37.625Z,101138.25
2023-03-28T04:06:05.250Z,101142.63
2023-03-28T04:08:33.319Z,101142.69
2023-03-28T04:11:00.549Z,101151.31
2023-03-28T04:13:27.753Z,101156.38
2023-03-28T04:15:55.052Z,101155.50
2023-03-28T04:18:22.213Z,101165.91
2023-03-28T04:20:55.301Z,101162.41
2023-03-28T04:23:25.993Z,101179.78
2023-03-28T04:25:57.423Z,101181.56
2023-03-28T04:28:25.931Z,101183.28
2023-03-28T04:30:54.629Z,101187.59
2023-03-28T04:33:25.190Z,101195.41
2023-03-28T04:36:00.471Z,101193.66
2023-03-28T04:38:29.791Z,101201.47
2023-03-28T04:40:59.688Z,101208.47
2023-03-28T04:43:27.983Z,101218.78
2023-03-28T04:45:55.685Z,101217.06
2023-03-28T04:48:24.183Z,101223.94
2023-03-28T04:50:51.534Z,101223.94
2023-03-28T04:53:18.979Z,101236.84
2023-03-28T04:55:50.520Z,101238.56
2023-03-28T04:58:19.376Z,101237.69
2023-03-28T05:00:47.096Z,101254.09
2023-03-28T05:03:18.273Z,101250.63
2023-03-28T05:05:47.469Z,101253.16
2023-03-28T05:08:17.053Z,101259.19
2023-03-28T05:10:45.867Z,101273.09
2023-03-28T05:13:13.452Z,101267.00
2023-03-28T05:15:42.249Z,101270.47
2023-03-28T05:18:11.682Z,101275.63
2023-03-28T05:20:39.195Z,101281.63
2023-03-28T05:23:07.279Z,101282.41
2023-03-28T05:25:34.786Z,101291.13
2023-03-28T05:28:01.994Z,101281.69
2023-03-28T05:30:29.095Z,101279.09
2023-03-28T05:32:56.813Z,101290.28
2023-03-28T05:35:24.052Z,101299.81
2023-03-28T05:37:51.544Z,101299.81
2023-03-28T05:40:18.895Z,101305.00
2023-03-28T05:42:46.327Z,101304.16
2023-03-28T05:45:13.852Z,101306.78
2023-03-28T05:47:41.626Z,101321.41
2023-03-28T05:50:09.329Z,101314.50
2023-03-28T05:52:36.845Z,101324.06
2023-03-28T05:55:04.465Z,101330.91
2023-03-28T05:57:31.713Z,101330.91
2023-03-28T05:59:59.254Z,101332.63
2023-03-28T06:02:26.495Z,101337.81
2023-03-28T06:04:54.658Z,101346.44
2023-03-28T06:07:35.218Z,101348.13
2023-03-28T06:10:10.780Z,101351.59
2023-03-28T06:12:38.108Z,101357.66
2023-03-28T06:15:06.084Z,101361.06
2023-03-28T06:17:33.265Z,101359.38
2023-03-28T06:20:00.767Z,101361.91
2023-03-28T06:22:27.970Z,101366.25
2023-03-28T06:24:55.238Z,101373.09
2023-03-28T06:27:22.431Z,101375.69
2023-03-28T06:29:49.750Z,101371.34
2023-03-28T06:32:18.142Z,101383.41
2023-03-28T06:34:45.686Z,101373.91
2023-03-28T06:37:12.826Z,101375.66
2023-03-28T06:39:39.962Z,101388.59
2023-03-28T06:42:07.132Z,101387.72
2023-03-28T06:44:34.304Z,101386.84
2023-03-28T06:47:02.551Z,101387.72
2023-03-28T06:49:29.889Z,101391.97
2023-03-28T06:51:56.979Z,101399.75
2023-03-28T06:54:24.205Z,101401.44
2023-03-28T06:56:51.423Z,101403.16
2023-03-28T06:59:18.674Z,101409.19
2023-03-28T07:01:45.899Z,101408.34
2023-03-28T07:04:13.112Z,101404.03
2023-03-28T07:06:41.248Z,101408.25
2023-03-28T07:09:08.490Z,101421.13
2023-03-28T07:11:35.700Z,101419.41
2023-03-28T07:14:02.858Z,101427.19
2023-03-28T07:16:30.178Z,101426.28
2023-03-28T07:18:57.452Z,101427.97
2023-03-28T07:21:24.574Z,101435.75
2023-03-28T07:23:51.754Z,101434.84
2023-03-28T07:26:18.839Z,101436.50
2023-03-28T07:28:46.214Z,101435.59
2023-03-28T07:31:13.430Z,101429.56
2023-03-28T07:33:40.856Z,101442.47
2023-03-28T07:36:13.843Z,101441.53
2023-03-28T07:38:41.158Z,101444.91
2023-03-28T07:41:09.111Z,101454.44
2023-03-28T07:43:38.666Z,101450.91
2023-03-28T07:46:11.389Z,101464.75
2023-03-28T07:48:38.650Z,101456.84
2023-03-28T07:51:06.426Z,101462.88
2023-03-28T07:53:34.898Z,101461.03
2023-03-28T07:56:02.055Z,101476.56
2023-03-28T07:58:29.167Z,101467.03
2023-03-28T08:00:56.398Z,101465.38
2023-03-28T08:03:23.995Z,101476.59
2023-03-28T08:05:54.227Z,101475.69
2023-03-28T08:08:21.703Z,101476.47
2023-03-28T08:10:51.901Z,101476.41
2023-03-28T08:13:21.220Z,101482.41
2023-03-28T08:15:55.608Z,101486.63
2023-03-28T08:18:25.101Z,101478.66
2023-03-28T08:20:59.269Z,101483.78
2023-03-28T08:23:26.958Z,101483.66
2023-03-28T08:26:06.286Z,101483.75
2023-03-28T08:28:34.668Z,101506.19
2023-03-28T08:31:02.729Z,101497.53
2023-03-28T08:33:32.721Z,101485.25
2023-03-28T08:36:00.015Z,101489.50
2023-03-28T08:38:27.196Z,101505.09
2023-03-28T08:41:07.263Z,101499.06
2023-03-28T08:43:43.322Z,101513.63
2023-03-28T08:46:13.866Z,101498.78
2023-03-28T08:48:44.581Z,101509.19
2023-03-28T08:51:28.189Z,101509.06
2023-03-28T08:54:14.792Z,101509.97
2023-03-28T08:56:49.049Z,101518.41
2023-03-28T08:59:17.542Z,101535.63
2023-03-28T09:01:45.020Z,101525.13
2023-03-28T09:04:34.927Z,101528.56
2023-03-28T09:07:16.678Z,101528.38
2023-03-28T09:10:08.444Z,101547.13
2023-03-28T09:12:44.205Z,101546.22
2023-03-28T09:15:20.225Z,101562.00
2023-03-28T09:18:06.802Z,101545.78
2023-03-28T09:20:43.193Z,101544.75
2023-03-28T09:23:28.961Z,101550.69
2023-03-28T09:26:20.194Z,101564.50
2023-03-28T09:29:05.811Z,101555.91
2023-03-28T09:31:38.196Z,101551.69
2023-03-28T09:34:07.050Z,101557.94
2023-03-28T09:36:48.439Z,101555.47
2023-03-28T09:39:29.043Z,101580.63
2023-03-28T09:42:14.432Z,101562.34
2023-03-28T09:44:54.604Z,101562.06
2023-03-28T09:47:22.481Z,101573.19
2023-03-28T09:49:54.362Z,101574.94
2023-03-28T09:52:31.503Z,101580.09
2023-03-28T09:55:00.450Z,101585.97
2023-03-28T09:57:27.623Z,101594.56
2023-03-28T09:59:58.294Z,101584.25
2023-03-28T10:02:32.293Z,101586.91
2023-03-28T10:04:59.982Z,101583.47
2023-03-28T10:07:33.624Z,101582.19
2023-03-28T10:10:10.226Z,101584.63
2023-03-28T10:12:39.082Z,101568.25
2023-03-28T10:15:08.759Z,101581.06
2023-03-28T10:17:37.336Z,101587.03
2023-03-28T10:20:15.502Z,101584.56
2023-03-28T10:22:44.804Z,101579.94
2023-03-28T10:25:17.584Z,101571.44
2023-03-28T10:27:44.687Z,101583.63
2023-03-28T10:30:16.070Z,101575.47
2023-03-28T10:32:43.395Z,101584.75
2023-03-28T10:35:26.223Z,101599.44
2023-03-28T10:37:56.841Z,101596.75
2023-03-28T10:40:28.005Z,101595.97
2023-03-28T10:42:56.317Z,101587.84
2023-03-28T10:45:32.449Z,101579.03
2023-03-28T10:48:01.137Z,101589.34
2023-03-28T10:50:36.831Z,101592.47
2023-03-28T10:53:13.611Z,101587.91
2023-03-28T10:55:58.818Z,101588.16
2023-03-28T10:58:31.591Z,101588.75
2023-03-28T11:01:05.784Z,101592.88
2023-03-28T11:03:50.908Z,101602.09
2023-03-28T11:06:23.065Z,101598.59
2023-03-28T11:09:03.841Z,101601.16
2023-03-28T11:11:31.112Z,101610.50
2023-03-28T11:14:32.091Z,101613.41
2023-03-28T11:17:07.305Z,101609.75
2023-03-28T11:19:52.128Z,101612.34
2023-03-28T11:22:37.549Z,101605.88
2023-03-28T11:25:19.612Z,101628.75
2023-03-28T11:27:59.239Z,101602.06
2023-03-28T11:30:33.364Z,101606.00
2023-03-28T11:33:11.195Z,101613.66
2023-03-28T11:35:49.921Z,101608.25
2023-03-28T11:38:42.162Z,101604.06
2023-03-28T11:41:23.312Z,101606.31
2023-03-28T11:44:22.067Z,101589.47
2023-03-28T11:46:57.427Z,101599.75
2023-03-28T11:49:33.978Z,101609.69
2023-03-28T11:52:13.102Z,101607.78
2023-03-28T11:54:49.790Z,101593.09
2023-03-28T11:57:30.129Z,101590.72
2023-03-28T12:00:00.666Z,101591.69
2023-03-28T12:02:52.259Z,101593.00
2023-03-28T12:05:37.577Z,101599.34
2023-03-28T12:08:14.742Z,101588.31
2023-03-28T12:10:48.148Z,101593.44
2023-03-28T12:13:21.868Z,101596.50
2023-03-28T12:16:10.185Z,101587.25
2023-03-28T12:19:07.974Z,101601.34
2023-03-28T12:22:01.409Z,101598.84
2023-03-28T12:24:44.865Z,101598.44
2023-03-28T12:27:29.433Z,101597.00
2023-03-28T12:30:00.202Z,101598.19
2023-03-28T12:32:50.142Z,101593.28
2023-03-28T12:35:50.298Z,101596.34
2023-03-28T12:38:35.832Z,101605.81
2023-03-28T12:41:06.655Z,101601.41
2023-03-28T12:43:47.947Z,101604.03
2023-03-28T12:46:48.275Z,101596.38
2023-03-28T12:49:26.087Z,101596.50
2023-03-28T12:51:55.364Z,101602.69
2023-03-28T12:54:36.132Z,101592.94
2023-03-28T12:57:09.332Z,101588.31
2023-03-28T12:59:39.262Z,101591.34
2023-03-28T13:02:16.412Z,101611.03
2023-03-28T13:05:18.869Z,101601.34
2023-03-28T13:08:18.913Z,101599.66
2023-03-28T13:10:54.895Z,101607.97
2023-03-28T13:13:30.678Z,101603.00
2023-03-28T13:16:05.738Z,101601.00
2023-03-28T13:18:46.062Z,101616.97
2023-03-28T13:21:43.302Z,101618.25
2023-03-28T13:24:25.985Z,101612.56
2023-03-28T13:26:57.941Z,101616.97
2023-03-28T13:29:44.021Z,101608.78
2023-03-28T13:32:15.254Z,101600.66
2023-03-28T13:34:59.873Z,101594.63
2023-03-28T13:37:47.634Z,101589.31
2023-03-28T13:40:40.631Z,101596.28
2023-03-28T13:43:43.541Z,101597.28
2023-03-28T13:46:17.355Z,101604.44
2023-03-28T13:49:19.062Z,101611.22
2023-03-28T13:51:55.726Z,101587.81
2023-03-28T13:54:23.885Z,101592.00
2023-03-28T13:56:52.440Z,101587.97
2023-03-28T13:59:23.994Z,101583.69
2023-03-28T14:01:57.329Z,101593.88
2023-03-28T14:04:35.365Z,101580.19
2023-03-28T14:07:05.783Z,101572.16
2023-03-28T14:09:36.658Z,101586.69
2023-03-28T14:12:09.458Z,101586.47
2023-03-28T14:14:42.218Z,101585.03
2023-03-28T14:17:16.199Z,101586.00
2023-03-28T14:19:50.801Z,101602.88
2023-03-28T14:22:21.267Z,101591.13
2023-03-28T14:24:51.501Z,101593.81
2023-03-28T14:27:37.867Z,101581.31
2023-03-28T14:30:34.661Z,101588.31
2023-03-28T14:33:07.350Z,101578.84
2023-03-28T14:35:36.870Z,101591.00
2023-03-28T14:38:06.227Z,101585.75
2023-03-28T14:40:38.761Z,101595.41
2023-03-28T14:43:17.078Z,101588.53
2023-03-28T14:45:48.048Z,101585.56
2023-03-28T14:48:20.004Z,101587.38
2023-03-28T14:50:50.204Z,101593.47
2023-03-28T14:53:19.679Z,101589.38
2023-03-28T14:55:49.702Z,101581.66
2023-03-28T14:58:19.034Z,101580.56
2023-03-28T15:00:48.036Z,101581.63
2023-03-28T15:03:32.206Z,101582.91
2023-03-28T15:05:59.969Z,101584.63
2023-03-28T15:08:31.644Z,101583.91
2023-03-28T15:11:04.180Z,101591.59
2023-03-28T15:13:39.242Z,101592.25
2023-03-28T15:16:07.946Z,101586.31
2023-03-28T15:18:48.951Z,101586.19
2023-03-28T15:21:16.464Z,101589.63
2023-03-28T15:23:54.738Z,101578.00
2023-03-28T15:26:28.582Z,101583.13
2023-03-28T15:28:56.874Z,101581.56
2023-03-28T15:31:25.213Z,101580.81
2023-03-28T15:33:53.750Z,101571.63
2023-03-28T15:36:28.898Z,101567.34
2023-03-28T15:38:59.957Z,101565.19
2023-03-28T15:41:31.652Z,101567.03
2023-03-28T15:44:10.390Z,101571.00
2023-03-28T15:46:37.604Z,101579.66
2023-03-28T15:49:06.427Z,101572.47
2023-03-28T15:51:52.506Z,101567.69
2023-03-28T15:54:30.063Z,101578.78
2023-03-28T15:56:59.592Z,101564.38
2023-03-28T15:59:32.994Z,101563.28
2023-03-28T16:02:26.898Z,101558.63
2023-03-28T16:05:16.043Z,101567.59
2023-03-28T16:07:47.448Z,101565.72
2023-03-28T16:10:20.115Z,101562.28
2023-03-28T16:12:50.502Z,101561.44
2023-03-28T16:15:18.667Z,101567.28
2023-03-28T16:17:49.187Z,101568.44
2023-03-28T16:20:21.451Z,101575.88
2023-03-28T16:22:49.056Z,101566.72
2023-03-28T16:25:16.512Z,101564.84
2023-03-28T16:27:44.009Z,101565.63
2023-03-28T16:30:25.319Z,101562.53
2023-03-28T16:32:52.877Z,101564.41
2023-03-28T16:35:22.649Z,101564.31
2023-03-28T16:37:53.154Z,101560.28
2023-03-28T16:40:21.729Z,101563.09
2023-03-28T16:42:52.666Z,101563.31
2023-03-28T16:45:20.598Z,101570.69
2023-03-28T16:47:49.017Z,101567.22
2023-03-28T16:50:16.547Z,101570.06
2023-03-28T16:52:43.886Z,101556.63
2023-03-28T16:55:14.350Z,101570.31
2023-03-28T16:57:42.153Z,101574.22
2023-03-28T17:00:16.122Z,101565.47
2023-03-28T17:02:59.393Z,101567.94
2023-03-28T17:05:37.003Z,101568.41
2023-03-28T17:08:04.646Z,101564.28
2023-03-28T17:10:33.215Z,101564.28
2023-03-28T17:13:02.717Z,101562.25
2023-03-28T17:15:33.818Z,101556.19
2023-03-28T17:18:01.661Z,101557.25
2023-03-28T17:20:32.726Z,101549.69
2023-03-28T17:23:00.000Z,101537.59
2023-03-28T17:25:27.412Z,101536.59
2023-03-28T17:27:54.558Z,101542.94
2023-03-28T17:30:21.867Z,101544.00
2023-03-28T17:32:51.409Z,101537.19
2023-03-28T17:35:18.976Z,101545.81
2023-03-28T17:37:46.198Z,101539.81
2023-03-28T17:40:14.501Z,101546.81
2023-03-28T17:42:46.995Z,101548.66
2023-03-28T17:45:14.428Z,101555.06
2023-03-28T17:47:41.945Z,101555.97
2023-03-28T17:50:09.484Z,101554.22
2023-03-28T17:52:37.646Z,101551.19
2023-03-28T17:55:06.247Z,101552.84
2023-03-28T17:57:36.465Z,101553.09
2023-03-28T18:00:05.379Z,101546.16
2023-03-28T18:02:38.449Z,101551.44
2023-03-28T18:05:06.517Z,101541.13
2023-03-28T18:07:35.056Z,101546.28
2023-03-28T18:10:02.976Z,101551.66
2023-03-28T18:12:30.902Z,101548.13
2023-03-28T18:15:00.431Z,101554.38
2023-03-28T18:17:29.586Z,101554.63
2023-03-28T18:19:57.663Z,101547.69
2023-03-28T18:22:25.080Z,101556.03
2023-03-28T18:24:52.304Z,101547.22
2023-03-28T18:27:19.745Z,101556.75
2023-03-28T18:29:47.932Z,101548.91
2023-03-28T18:32:17.912Z,101541.88
2023-03-28T18:34:45.421Z,101550.56
2023-03-28T18:37:12.850Z,101555.81
2023-03-28T18:39:41.672Z,101555.91
2023-03-28T18:42:08.978Z,101555.06
2023-03-28T18:44:37.056Z,101549.94
2023-03-28T18:47:05.259Z,101549.16
2023-03-28T18:49:34.626Z,101550.94
2023-03-28T18:52:05.114Z,101552.63
2023-03-28T18:54:34.162Z,101552.75
2023-03-28T18:57:01.577Z,101554.72
2023-03-28T18:59:29.931Z,101559.91
2023-03-28T19:01:58.580Z,101555.72
2023-03-28T19:04:26.507Z,101558.41
2023-03-28T19:06:53.804Z,101548.75
2023-03-28T19:09:21.189Z,101557.53
2023-03-28T19:11:52.478Z,101561.19
2023-03-28T19:14:19.740Z,101558.72
2023-03-28T19:16:47.216Z,101556.97
2023-03-28T19:19:15.309Z,101552.50
2023-03-28T19:21:42.564Z,101556.88
2023-03-28T19:24:09.833Z,101551.81
2023-03-28T19:26:37.886Z,101555.16
2023-03-28T19:29:05.965Z,101557.81
2023-03-28T19:31:33.388Z,101554.28
2023-03-28T19:34:00.927Z,101549.25
2023-03-28T19:36:28.262Z,101559.69
2023-03-28T19:38:55.522Z,101558.84
2023-03-28T19:41:24.294Z,101558.94
2023-03-28T19:43:51.542Z,101556.19
2023-03-28T19:46:30.738Z,101554.63
2023-03-28T19:49:01.548Z,101557.34
2023-03-28T19:51:29.037Z,101556.34
2023-03-28T19:53:56.420Z,101556.41
2023-03-28T19:56:23.703Z,101550.25
2023-03-28T19:58:52.159Z,101545.16
2023-03-28T20:01:19.824Z,101544.41
2023-03-28T20:03:52.207Z,101546.28
2023-03-28T20:06:22.750Z,101541.91
2023-03-28T20:08:50.813Z,101544.47
2023-03-28T20:11:18.534Z,101534.00
2023-03-28T20:13:47.655Z,101537.53
2023-03-28T20:16:15.113Z,101541.09
2023-03-28T20:18:42.759Z,101539.28
2023-03-28T20:21:11.972Z,101543.72
2023-03-28T20:23:39.179Z,101540.34
2023-03-28T20:26:18.390Z,101547.28
2023-03-28T20:28:49.591Z,101538.69
2023-03-28T20:31:18.015Z,101531.63
2023-03-28T20:33:46.304Z,101537.84
2023-03-28T20:36:13.564Z,101527.47
2023-03-28T20:38:40.858Z,101531.03
2023-03-28T20:41:15.760Z,101525.81
2023-03-28T20:43:50.228Z,101514.50
2023-03-28T20:46:19.151Z,101514.47
2023-03-28T20:48:52.674Z,101514.66
2023-03-28T20:51:22.609Z,101513.91
2023-03-28T20:53:54.276Z,101513.91
2023-03-28T20:56:21.924Z,101509.72
2023-03-28T20:58:50.499Z,101508.09
2023-03-28T21:01:18.606Z,101502.88
2023-03-28T21:03:49.677Z,101501.06
2023-03-28T21:06:22.360Z,101501.88
2023-03-28T21:08:50.913Z,101500.28
2023-03-28T21:11:19.846Z,101497.66
2023-03-28T21:13:47.157Z,101496.81
2023-03-28T21:16:14.902Z,101496.81
2023-03-28T21:18:42.185Z,101493.41
2023-03-28T21:21:10.959Z,101488.94
2023-03-28T21:23:39.125Z,101488.09
2023-03-28T21:26:07.897Z,101486.38
2023-03-28T21:28:37.624Z,101488.03
2023-03-28T21:31:11.365Z,101492.22
2023-03-28T21:33:38.937Z,101487.81
2023-03-28T21:36:07.611Z,101488.63
2023-03-28T21:38:35.582Z,101489.56
2023-03-28T21:41:07.332Z,101492.19
2023-03-28T21:43:35.627Z,101489.78
2023-03-28T21:46:03.662Z,101482.97
2023-03-28T21:48:31.245Z,101489.09
2023-03-28T21:50:59.893Z,101484.94
2023-03-28T21:53:32.220Z,101481.50
2023-03-28T21:55:59.961Z,101477.16
2023-03-28T21:58:29.905Z,101475.50
2023-03-28T22:00:57.293Z,101476.31
2023-03-28T22:03:25.667Z,101476.34
2023-03-28T22:05:53.538Z,101473.72
2023-03-28T22:08:22.126Z,101472.84
2023-03-28T22:10:55.413Z,101468.56
2023-03-28T22:13:23.890Z,101472.97
2023-03-28T22:15:52.439Z,101468.91
2023-03-28T22:18:20.950Z,101469.81
2023-03-28T22:20:53.180Z,101468.88
2023-03-28T22:23:22.345Z,101472.31
2023-03-28T22:25:50.297Z,101474.84
2023-03-28T22:28:18.874Z,101466.41
2023-03-28T22:30:48.411Z,101458.63
2023-03-28T22:33:18.378Z,101463.94
2023-03-28T22:35:52.278Z,101460.53
2023-03-28T22:38:19.646Z,101457.16
2023-03-28T22:40:47.788Z,101460.56
2023-03-28T22:43:16.379Z,101462.41
2023-03-28T22:45:43.652Z,101452.13
2023-03-28T22:48:17.231Z,101455.53
2023-03-28T22:50:44.641Z,101457.28
2023-03-28T22:53:12.686Z,101454.03
2023-03-28T22:55:41.668Z,101446.25
2023-03-28T22:58:08.884Z,101449.94
2023-03-28T23:00:36.258Z,101449.00
2023-03-28T23:03:08.112Z,101443.81
2023-03-28T23:05:36.437Z,101443.91
2023-03-28T23:08:04.772Z,101435.28
2023-03-28T23:10:35.759Z,101434.47
2023-03-28T23:13:03.179Z,101432.84
2023-03-28T23:15:30.383Z,101431.09
2023-03-28T23:17:58.617Z,101432.84
2023-03-28T23:20:26.477Z,101426.75
2023-03-28T23:22:53.705Z,101429.53
2023-03-28T23:25:22.066Z,101425.13
2023-03-28T23:27:49.389Z,101424.31
2023-03-28T23:30:17.085Z,101418.25
2023-03-28T23:32:44.700Z,101419.25
2023-03-28T23:35:12.079Z,101409.81
2023-03-28T23:37:39.729Z,101416.81
2023-03-28T23:40:14.107Z,101412.50
2023-03-28T23:42:44.022Z,101404.69
2023-03-28T23:45:13.873Z,101400.28
2023-03-28T23:47:41.962Z,101402.06
2023-03-28T23:50:10.139Z,101394.25
2023-03-28T23:52:37.290Z,101386.44
2023-03-28T23:55:04.927Z,101383.75
2023-03-28T23:57:32.614Z,101380.34
2023-03-28T23:59:59.835Z,101378.59
